• Join FlightAware (Why Join?)
  • Login
  • US Flag 
01:33PM EDT


 

Airport Tracker/Info


-or-


 

Live Flight TrackerFlight Track Log ✈ UPS1131 ✈ 25-Jun-2013 ✈ KSYR - KBUF

Flight Track Log - Related Links

Times and Time Zones

All times are in EDT time to prevent confusion due to time zone crossing. See the UPS1131 flight status page for this flight to view local times or setup timezone preferences in your user account.

Time Position Orientation Groundspeed Altitude Reporting Facility
EDT Latitude Longitude Course Direction KTS MPH feet Rate Location/Type
10:07PM 43.1090 -76.0920 86° East 159 183 1,600  Level FlightAware
10:07PM 43.1140 -76.0710 72° East 188 216 2,100 1,500 Climbing FlightAware
10:07PM 43.1180 -76.0650 48° Northeast 194 223 2,300 1,860 Climbing FlightAware
10:08PM 43.1300 -76.0600 17° North 201 231 2,800 2,460 Climbing FlightAware
10:08PM 43.1590 -76.0760 338° Northwest 218 251 4,200 2,220 Climbing FlightAware
10:08PM 43.1740 -76.0880 330° Northwest 240 276 4,600 1,920 Climbing FlightAware
10:09PM 43.1830 -76.1030 309° West 247 284 5,100 2,760 Climbing FlightAware
10:09PM 43.1880 -76.1270 286° West 251 289 5,900 3,000 Climbing FlightAware
10:09PM 43.1890 -76.1440 275° West 254 292 6,500 3,120 Climbing FlightAware
10:10PM 43.1880 -76.1910 268° West 260 299 8,000 3,240 Climbing FlightAware
10:10PM 43.1870 -76.2290 268° West 266 306 9,200 1,860 Climbing FlightAware
10:11PM 43.1850 -76.3040 268° West 292 336 10,100 600 Climbing FlightAware
10:11PM 43.1940 -76.4020 277° West 363 418 10,100 240 Level FlightAware
10:12PM 43.2100 -76.4990 283° West 370 426 10,500 2,280 Climbing FlightAware
10:13PM 43.2290 -76.6160 283° West 379 436 13,600 3,180 Climbing FlightAware
10:14PM 43.2440 -76.7100 282° West 388 447 15,100 1,740 Climbing FlightAware
10:14PM 43.2620 -76.8180 283° West 383 441 16,100 660 Climbing FlightAware
10:15PM 43.2790 -76.9210 283° West 392 451 16,100  Level FlightAware
10:16PM 43.2960 -77.0300 282° West 399 459 16,100  Level FlightAware
10:16PM 43.3080 -77.1290 279° West 398 458 16,100  Level FlightAware
10:17PM 43.3000 -77.2260 264° West 393 452 16,100  Level FlightAware
10:18PM 43.2860 -77.3340 260° West 391 450 16,100 -240 Level FlightAware
10:19PM 43.2730 -77.4310 260° West 385 443 15,800 -1,680 Descending FlightAware
10:19PM 43.2590 -77.5290 259° West 378 435 13,900 -2,700 Descending FlightAware
10:20PM 43.2470 -77.6190 260° West 373 429 12,200 -1,920 Descending FlightAware
10:21PM 43.2340 -77.7110 259° West 344 396 11,400 -1,020 Descending FlightAware
10:21PM 43.2210 -77.8030 259° West 313 360 10,800 -780 Descending FlightAware
10:22PM 43.2050 -77.9210 260° West 270 311 10,000 -840 Descending FlightAware
10:23PM 43.2010 -77.9450 257° West 268 308 9,700 -1,380 Descending FlightAware
10:23PM 43.1940 -77.9940 259° West 267 307 9,000 -1,440 Descending FlightAware
10:24PM 43.1880 -78.0370 259° West 265 305 8,400 -1,320 Descending FlightAware
10:24PM 43.1810 -78.0870 259° West 261 300 7,800 -1,320 Descending FlightAware
10:24PM 43.1750 -78.1260 258° West 261 300 7,200 -1,440 Descending FlightAware
10:25PM 43.1690 -78.1720 260° West 261 300 6,500 -1,200 Descending FlightAware
10:25PM 43.1590 -78.2140 252° West 262 302 6,100 -600 Descending FlightAware
10:26PM 43.1510 -78.2360 244° Southwest 263 303 6,100 -720 Level FlightAware
10:26PM 43.1340 -78.2820 243° Southwest 257 296 5,600 -1,140 Descending FlightAware
10:27PM 43.1200 -78.3210 244° Southwest 257 296 5,000 -1,440 Descending FlightAware
10:27PM 43.1060 -78.3620 245° Southwest 257 296 4,300 -1,440 Descending FlightAware
10:28PM 43.0810 -78.4300 243° Southwest 252 290 3,400 -1,140 Descending FlightAware
10:28PM 43.0680 -78.4650 243° Southwest 249 287 3,000 -1,020 Descending FlightAware
10:29PM 43.0530 -78.5070 244° Southwest 241 277 2,500 -660 Descending FlightAware
10:29PM 43.0390 -78.5440 243° Southwest 223 257 2,400 -120 Descending FlightAware
10:30PM 43.0270 -78.5770 244° Southwest 197 227 2,400  Level FlightAware
10:30PM 43.0160 -78.6080 244° Southwest 167 192 2,400  Level FlightAware
10:30PM 43.0120 -78.6210 247° West 153 176 2,400  Level FlightAware
10:31PM 43.0030 -78.6440 242° Southwest 141 162 2,400 -300 Level FlightAware
10:31PM 42.9990 -78.6530 239° Southwest 137 158 2,200 -780 Descending FlightAware
10:31PM 42.9880 -78.6670 223° Southwest 108 124 1,900 -540 Descending FlightAware
10:32PM 42.9780 -78.6800 224° Southwest 103 119 1,700 -540 Descending FlightAware
10:32PM 42.9690 -78.6930 227° Southwest 107 123 1,400 -600 Descending FlightAware
10:33PM 42.9640 -78.6990 221° Southwest 110 127 1,300 -600 Descending FlightAware
10:33PM 42.9520 -78.7150 224° Southwest 116 133 1,000 -540 Descending FlightAware
10:34PM 42.9420 -78.7280 224° Southwest 108 124 800 -240 Descending FlightAware
10:34PM 42.9330 -78.7390 222° Southwest 108 124 800  Level FlightAware
10:34PM 42.9370 -78.7360 29° Northeast 20 23 -3,480 Descending FlightAware
10:35PM 42.9390 -78.7390 312° West 34 39  Level FlightAware